createdAt,value
2018-01-10T00:00:13.089Z,0
2018-01-10T00:01:13.354Z,0
2018-01-10T00:02:13.359Z,0
2018-01-10T00:03:13.358Z,0
2018-01-10T00:04:13.444Z,0
2018-01-10T00:05:13.385Z,0
2018-01-10T00:06:13.532Z,0
2018-01-10T00:07:13.389Z,0
2018-01-10T00:08:13.490Z,0
2018-01-10T00:09:12.903Z,0
2018-01-10T00:10:13.482Z,0
2018-01-10T00:11:13.457Z,0
2018-01-10T00:12:13.756Z,0
2018-01-10T00:13:13.569Z,0
2018-01-10T00:14:13.813Z,0
2018-01-10T00:15:13.540Z,0
2018-01-10T00:16:13.851Z,0
2018-01-10T00:17:13.330Z,0
2018-01-10T00:18:13.269Z,0
2018-01-10T00:19:13.598Z,0
2018-01-10T00:20:13.849Z,0
2018-01-10T00:21:13.318Z,0
2018-01-10T00:22:13.567Z,0
2018-01-10T00:23:13.925Z,0
2018-01-10T00:24:13.951Z,0
2018-01-10T00:25:13.687Z,0
2018-01-10T00:26:13.616Z,0
2018-01-10T00:27:13.355Z,0
2018-01-10T00:28:13.660Z,0
2018-01-10T00:29:13.980Z,0
2018-01-10T00:30:13.947Z,0
2018-01-10T00:31:13.974Z,0
2018-01-10T00:32:13.718Z,0
2018-01-10T00:33:13.684Z,0
2018-01-10T00:34:13.486Z,0
2018-01-10T00:35:13.853Z,0
2018-01-10T00:36:14.106Z,0
2018-01-10T00:37:13.767Z,0
2018-01-10T00:38:13.809Z,0
2018-01-10T00:39:14.108Z,0
2018-01-10T00:40:13.804Z,0
2018-01-10T00:41:13.857Z,0
2018-01-10T00:42:13.529Z,0
2018-01-10T00:43:14.140Z,0
2018-01-10T00:44:13.848Z,0
2018-01-10T00:45:13.882Z,0
2018-01-10T00:46:13.884Z,0
2018-01-10T00:47:13.850Z,0
2018-01-10T00:48:14.166Z,0
2018-01-10T00:49:13.695Z,0
2018-01-10T00:50:14.167Z,0
2018-01-10T00:51:14.233Z,0
2018-01-10T00:52:14.259Z,0
2018-01-10T00:53:13.704Z,0
2018-01-10T00:54:13.988Z,0
2018-01-10T00:55:14.230Z,0
2018-01-10T00:56:14.014Z,0
2018-01-10T00:57:13.703Z,0
2018-01-10T00:58:14.290Z,0
2018-01-10T00:59:14.294Z,0
2018-01-10T01:00:13.767Z,0
2018-01-10T01:01:14.383Z,0
2018-01-10T01:02:13.762Z,0
2018-01-10T01:03:14.124Z,0
2018-01-10T01:04:14.241Z,0
2018-01-10T01:05:14.055Z,0
2018-01-10T01:06:14.074Z,0
2018-01-10T01:07:14.463Z,0
2018-01-10T01:08:14.410Z,0
2018-01-10T01:09:14.197Z,0
2018-01-10T01:10:14.144Z,0
2018-01-10T01:11:14.506Z,0
2018-01-10T01:12:14.195Z,0
2018-01-10T01:13:14.150Z,0
2018-01-10T01:14:13.966Z,0
2018-01-10T01:15:14.216Z,0
2018-01-10T01:16:13.942Z,0
2018-01-10T01:17:14.235Z,0
2018-01-10T01:18:13.923Z,0
2018-01-10T01:19:13.954Z,0
2018-01-10T01:20:13.708Z,0
2018-01-10T01:21:14.544Z,0
2018-01-10T01:22:13.986Z,0
2018-01-10T01:23:14.255Z,0
2018-01-10T01:24:14.311Z,0
2018-01-10T01:25:14.639Z,0
2018-01-10T01:26:14.645Z,0
2018-01-10T01:27:14.369Z,0
2018-01-10T01:28:14.370Z,0
2018-01-10T01:29:14.681Z,0
2018-01-10T01:30:14.682Z,0
2018-01-10T01:31:14.681Z,0
2018-01-10T01:32:14.096Z,0
2018-01-10T01:33:14.728Z,0
2018-01-10T01:34:14.147Z,0
2018-01-10T01:35:14.717Z,0
2018-01-10T01:36:14.169Z,0
2018-01-10T01:37:14.204Z,0
2018-01-10T01:38:14.467Z,0
2018-01-10T01:39:14.218Z,0
2018-01-10T01:40:14.540Z,0
2018-01-10T01:41:14.849Z,0
2018-01-10T01:42:14.518Z,0
2018-01-10T01:43:14.829Z,0
2018-01-10T01:44:14.543Z,0
2018-01-10T01:45:14.865Z,0
2018-01-10T01:46:14.595Z,0
2018-01-10T01:47:14.916Z,0
2018-01-10T01:48:14.614Z,0
2018-01-10T01:49:14.951Z,0
2018-01-10T01:50:14.311Z,0
2018-01-10T01:51:14.901Z,0
2018-01-10T01:52:14.666Z,0
2018-01-10T01:53:14.669Z,0
2018-01-10T01:54:14.624Z,0
2018-01-10T01:55:14.939Z,0
2018-01-10T01:56:15.014Z,0
2018-01-10T01:57:14.995Z,0
2018-01-10T01:58:14.713Z,0
2018-01-10T01:59:14.984Z,0
2018-01-10T02:00:14.765Z,0
2018-01-10T02:01:15.020Z,0
2018-01-10T02:02:15.029Z,0
2018-01-10T02:03:14.783Z,0
2018-01-10T02:04:14.501Z,0
2018-01-10T02:05:14.743Z,0
2018-01-10T02:06:14.470Z,0
2018-01-10T02:07:15.106Z,0
2018-01-10T02:08:14.503Z,0
2018-01-10T02:09:15.138Z,0
2018-01-10T02:10:15.839Z,0
2018-01-10T02:11:15.114Z,0
2018-01-10T02:12:14.564Z,0
2018-01-10T02:13:14.853Z,0
2018-01-10T02:14:14.949Z,0
2018-01-10T02:15:14.975Z,0
2018-01-10T02:16:14.871Z,0
2018-01-10T02:17:15.133Z,0
2018-01-10T02:18:14.922Z,0
2018-01-10T02:19:14.919Z,0
2018-01-10T02:20:14.975Z,0
2018-01-10T02:21:15.015Z,0
2018-01-10T02:22:15.334Z,0
2018-01-10T02:23:14.973Z,0
2018-01-10T02:24:15.342Z,0
2018-01-10T02:25:15.256Z,0
2018-01-10T02:26:14.763Z,0
2018-01-10T02:27:15.075Z,0
2018-01-10T02:28:15.089Z,0
2018-01-10T02:29:15.325Z,0
2018-01-10T02:30:14.767Z,0
2018-01-10T02:31:15.977Z,0
2018-01-10T02:32:15.478Z,0
2018-01-10T02:33:15.373Z,0
2018-01-10T02:34:15.427Z,0
2018-01-10T02:35:14.868Z,0
2018-01-10T02:36:15.456Z,0
2018-01-10T02:37:15.162Z,0
2018-01-10T02:38:14.856Z,0
2018-01-10T02:39:15.143Z,0
2018-01-10T02:40:15.171Z,0
2018-01-10T02:41:15.461Z,0
2018-01-10T02:42:15.196Z,0
2018-01-10T02:43:14.946Z,0
2018-01-10T02:44:15.181Z,0
2018-01-10T02:45:15.506Z,0
2018-01-10T02:46:14.814Z,0
2018-01-10T02:47:15.540Z,0
2018-01-10T02:48:15.557Z,0
2018-01-10T02:49:15.306Z,0
2018-01-10T02:50:15.559Z,0
2018-01-10T02:51:15.342Z,0
2018-01-10T02:52:15.589Z,0
2018-01-10T02:53:15.666Z,0
2018-01-10T02:54:15.365Z,0
2018-01-10T02:55:15.356Z,0
2018-01-10T02:56:15.832Z,0
2018-01-10T02:57:15.656Z,0
2018-01-10T02:58:15.099Z,0
2018-01-10T02:59:15.696Z,0
2018-01-10T03:00:15.385Z,0
2018-01-10T03:01:15.409Z,0
2018-01-10T03:02:15.445Z,0
2018-01-10T03:03:15.753Z,0
2018-01-10T03:04:15.488Z,0
2018-01-10T03:05:15.758Z,0
2018-01-10T03:06:15.453Z,0
2018-01-10T03:07:15.813Z,0
2018-01-10T03:08:15.202Z,0
2018-01-10T03:09:15.562Z,0
2018-01-10T03:10:15.530Z,0
2018-01-10T03:11:15.536Z,0
2018-01-10T03:12:15.561Z,0
2018-01-10T03:13:15.888Z,0
2018-01-10T03:14:15.291Z,0
2018-01-10T03:15:15.301Z,0
2018-01-10T03:16:15.539Z,0
2018-01-10T03:17:15.831Z,0
2018-01-10T03:18:15.651Z,0
2018-01-10T03:19:15.610Z,0
2018-01-10T03:20:15.336Z,0
2018-01-10T03:21:15.946Z,0
2018-01-10T03:22:15.956Z,0
2018-01-10T03:23:15.960Z,0
2018-01-10T03:24:15.713Z,0
2018-01-10T03:25:15.935Z,0
2018-01-10T03:26:16.014Z,0
2018-01-10T03:27:15.986Z,0
2018-01-10T03:28:15.700Z,0
2018-01-10T03:29:15.714Z,0
2018-01-10T03:30:16.095Z,0
2018-01-10T03:31:16.212Z,0
2018-01-10T03:32:16.056Z,0
2018-01-10T03:33:15.793Z,0
2018-01-10T03:34:15.495Z,0
2018-01-10T03:35:15.503Z,0
2018-01-10T03:36:16.085Z,0
2018-01-10T03:37:15.248Z,0
2018-01-10T03:38:15.824Z,0
2018-01-10T03:39:15.586Z,0
2018-01-10T03:40:15.814Z,0
2018-01-10T03:41:16.136Z,0
2018-01-10T03:42:15.895Z,0
2018-01-10T03:43:16.181Z,0
2018-01-10T03:44:15.624Z,0
2018-01-10T03:45:15.597Z,0
2018-01-10T03:46:16.225Z,0
2018-01-10T03:47:15.635Z,0
2018-01-10T03:48:15.923Z,0
2018-01-10T03:49:16.255Z,0
2018-01-10T03:50:15.945Z,0
2018-01-10T03:51:16.329Z,0
2018-01-10T03:52:16.290Z,0
2018-01-10T03:53:16.028Z,0
2018-01-10T03:54:15.741Z,0
2018-01-10T03:55:16.292Z,0
2018-01-10T03:56:16.334Z,0
2018-01-10T03:57:16.046Z,0
2018-01-10T03:58:16.382Z,0
2018-01-10T03:59:16.031Z,0
2018-01-10T04:00:16.382Z,0
2018-01-10T04:01:15.808Z,0
2018-01-10T04:02:16.363Z,0
2018-01-10T04:03:15.563Z,0
2018-01-10T04:04:16.137Z,0
2018-01-10T04:05:16.356Z,0
2018-01-10T04:06:15.838Z,0
2018-01-10T04:07:16.446Z,0
2018-01-10T04:08:16.471Z,0
2018-01-10T04:09:16.190Z,0
2018-01-10T04:10:16.223Z,0
2018-01-10T04:11:16.245Z,0
2018-01-10T04:12:16.241Z,0
2018-01-10T04:13:16.165Z,0
2018-01-10T04:14:16.314Z,0
2018-01-10T04:15:16.252Z,0
2018-01-10T04:16:15.966Z,0
2018-01-10T04:17:16.521Z,0
2018-01-10T04:18:16.253Z,0
2018-01-10T04:19:16.287Z,0
2018-01-10T04:20:16.633Z,0
2018-01-10T04:21:16.326Z,0
2018-01-10T04:22:16.005Z,0
2018-01-10T04:23:16.315Z,0
2018-01-10T04:24:16.360Z,0
2018-01-10T04:25:16.068Z,0
2018-01-10T04:26:16.679Z,0
2018-01-10T04:27:16.528Z,0
2018-01-10T04:28:16.623Z,0
2018-01-10T04:29:16.715Z,0
2018-01-10T04:30:16.405Z,0
2018-01-10T04:31:16.233Z,0
2018-01-10T04:32:16.116Z,0
2018-01-10T04:33:16.738Z,0
2018-01-10T04:34:16.493Z,0
2018-01-10T04:35:16.789Z,0
2018-01-10T04:36:16.465Z,0
2018-01-10T04:37:16.778Z,0
2018-01-10T04:38:16.810Z,0
2018-01-10T04:39:16.802Z,0
2018-01-10T04:40:16.490Z,0
2018-01-10T04:41:16.535Z,0
2018-01-10T04:42:16.809Z,0
2018-01-10T04:43:16.525Z,0
2018-01-10T04:44:16.261Z,0
2018-01-10T04:45:16.572Z,0
2018-01-10T04:46:16.635Z,0
2018-01-10T04:47:16.315Z,0
2018-01-10T04:48:16.319Z,0
2018-01-10T04:49:16.321Z,0
2018-01-10T04:50:16.594Z,0
2018-01-10T04:51:17.184Z,0
2018-01-10T04:52:16.915Z,0
2018-01-10T04:53:16.948Z,0
2018-01-10T04:54:16.642Z,0
2018-01-10T04:55:16.931Z,0
2018-01-10T04:56:16.405Z,0
2018-01-10T04:57:16.691Z,0
2018-01-10T04:58:16.433Z,0
2018-01-10T04:59:16.731Z,0
2018-01-10T05:00:16.417Z,0
2018-01-10T05:01:16.755Z,0
2018-01-10T05:02:16.688Z,0
2018-01-10T05:03:16.746Z,0
2018-01-10T05:04:16.717Z,0
2018-01-10T05:05:16.484Z,0
2018-01-10T05:06:16.513Z,0
2018-01-10T05:07:16.489Z,0
2018-01-10T05:08:16.453Z,0
2018-01-10T05:09:17.046Z,0
2018-01-10T05:10:17.054Z,0
2018-01-10T05:11:16.857Z,0
2018-01-10T05:12:16.231Z,0
2018-01-10T05:13:16.770Z,0
2018-01-10T05:14:16.840Z,0
2018-01-10T05:15:17.107Z,0
2018-01-10T05:16:16.834Z,0
2018-01-10T05:17:16.908Z,0
2018-01-10T05:18:16.892Z,0
2018-01-10T05:19:16.562Z,0
2018-01-10T05:20:16.643Z,0
2018-01-10T05:21:16.644Z,0
2018-01-10T05:22:16.634Z,0
2018-01-10T05:23:16.657Z,0
2018-01-10T05:24:16.662Z,0
2018-01-10T05:25:16.364Z,0
2018-01-10T05:26:16.370Z,0
2018-01-10T05:27:17.224Z,0
2018-01-10T05:28:17.026Z,0
2018-01-10T05:29:16.678Z,0
2018-01-10T05:30:17.397Z,0
2018-01-10T05:31:17.281Z,0
2018-01-10T05:32:17.280Z,0
2018-01-10T05:33:17.327Z,0
2018-01-10T05:34:17.016Z,0
2018-01-10T05:35:17.027Z,0
2018-01-10T05:36:17.167Z,0
2018-01-10T05:37:17.329Z,0
2018-01-10T05:38:16.806Z,0
2018-01-10T05:39:17.130Z,0
2018-01-10T05:40:17.109Z,0
2018-01-10T05:41:17.292Z,0
2018-01-10T05:42:17.101Z,0
2018-01-10T05:43:16.875Z,0
2018-01-10T05:44:16.859Z,0
2018-01-10T05:45:17.461Z,0
2018-01-10T05:46:17.343Z,0
2018-01-10T05:47:17.484Z,0
2018-01-10T05:48:17.464Z,0
2018-01-10T05:49:17.470Z,0
2018-01-10T05:50:17.443Z,0
2018-01-10T05:51:17.279Z,0
2018-01-10T05:52:17.261Z,0
2018-01-10T05:53:17.233Z,0
2018-01-10T05:54:17.245Z,0
2018-01-10T05:55:17.537Z,0
2018-01-10T05:56:17.583Z,0
2018-01-10T05:57:17.524Z,0
2018-01-10T05:58:17.568Z,0
2018-01-10T05:59:17.565Z,0
2018-01-10T06:00:17.573Z,0
2018-01-10T06:01:17.620Z,0
2018-01-10T06:02:17.391Z,0
2018-01-10T06:03:17.364Z,0
2018-01-10T06:04:17.328Z,0
2018-01-10T06:05:17.363Z,0
2018-01-10T06:06:17.405Z,0
2018-01-10T06:07:16.800Z,0
2018-01-10T06:08:17.392Z,0
2018-01-10T06:09:16.834Z,0
2018-01-10T06:10:17.702Z,0
2018-01-10T06:11:17.384Z,0
2018-01-10T06:12:17.119Z,0
2018-01-10T06:13:17.171Z,0
2018-01-10T06:14:17.792Z,0
2018-01-10T06:15:17.767Z,0
2018-01-10T06:16:17.223Z,0
2018-01-10T06:17:17.803Z,0
2018-01-10T06:18:17.814Z,0
2018-01-10T06:19:17.812Z,0
2018-01-10T06:20:17.900Z,0
2018-01-10T06:21:17.589Z,0
2018-01-10T06:22:17.844Z,0
2018-01-10T06:23:17.561Z,0
2018-01-10T06:24:17.592Z,0
2018-01-10T06:25:17.807Z,0
2018-01-10T06:26:17.890Z,0
2018-01-10T06:27:17.913Z,0
2018-01-10T06:28:17.585Z,0
2018-01-10T06:29:17.612Z,0
2018-01-10T06:30:17.868Z,0
2018-01-10T06:31:17.623Z,0
2018-01-10T06:32:17.686Z,0
2018-01-10T06:33:17.900Z,0
2018-01-10T06:34:18.010Z,0
2018-01-10T06:35:17.978Z,0
2018-01-10T06:36:17.740Z,0
2018-01-10T06:37:18.012Z,0
2018-01-10T06:38:17.157Z,0
2018-01-10T06:39:17.685Z,0
2018-01-10T06:40:18.075Z,0
2018-01-10T06:41:18.036Z,0
2018-01-10T06:42:18.112Z,0
2018-01-10T06:43:17.506Z,0
2018-01-10T06:44:18.079Z,0
2018-01-10T06:45:17.488Z,0
2018-01-10T06:46:18.112Z,0
2018-01-10T06:47:17.524Z,0
2018-01-10T06:48:18.157Z,0
2018-01-10T06:49:17.838Z,0
2018-01-10T06:50:18.178Z,0
2018-01-10T06:51:17.821Z,0
2018-01-10T06:52:17.955Z,4
2018-01-10T06:53:18.173Z,4
2018-01-10T06:54:17.582Z,4
2018-01-10T06:55:17.911Z,0
2018-01-10T06:56:18.201Z,4
2018-01-10T06:57:18.244Z,4
2018-01-10T06:58:18.231Z,8
2018-01-10T06:59:18.164Z,4
2018-01-10T07:00:17.711Z,4
2018-01-10T07:01:17.955Z,8
2018-01-10T07:02:18.250Z,4
2018-01-10T07:03:18.309Z,8
2018-01-10T07:04:17.973Z,8
2018-01-10T07:05:18.260Z,12
2018-01-10T07:06:18.311Z,8
2018-01-10T07:07:18.091Z,8
2018-01-10T07:08:18.006Z,12
2018-01-10T07:09:18.109Z,16
2018-01-10T07:10:18.092Z,16
2018-01-10T07:11:18.397Z,16
2018-01-10T07:12:18.366Z,20
2018-01-10T07:13:18.406Z,24
2018-01-10T07:14:18.368Z,24
2018-01-10T07:15:18.124Z,20
2018-01-10T07:16:18.423Z,24
2018-01-10T07:17:18.211Z,24
2018-01-10T07:18:17.861Z,28
2018-01-10T07:19:17.864Z,32
2018-01-10T07:20:18.421Z,36
2018-01-10T07:21:18.462Z,36
2018-01-10T07:22:18.514Z,40
2018-01-10T07:23:18.499Z,44
2018-01-10T07:24:17.966Z,44
2018-01-10T07:25:18.185Z,48
2018-01-10T07:26:18.200Z,48
2018-01-10T07:27:18.714Z,48
2018-01-10T07:28:17.985Z,52
2018-01-10T07:29:18.269Z,48
2018-01-10T07:30:18.244Z,56
2018-01-10T07:31:17.962Z,56
2018-01-10T07:32:18.353Z,60
2018-01-10T07:33:18.634Z,60
2018-01-10T07:34:18.596Z,64
2018-01-10T07:35:18.288Z,68
2018-01-10T07:36:18.629Z,68
2018-01-10T07:37:18.744Z,72
2018-01-10T07:38:18.344Z,72
2018-01-10T07:39:18.380Z,80
2018-01-10T07:40:18.653Z,80
2018-01-10T07:41:18.628Z,84
2018-01-10T07:42:18.478Z,84
2018-01-10T07:43:18.576Z,88
2018-01-10T07:44:18.413Z,88
2018-01-10T07:45:18.431Z,96
2018-01-10T07:46:18.144Z,96
2018-01-10T07:47:17.951Z,100
2018-01-10T07:48:18.487Z,104
2018-01-10T07:49:18.470Z,104
2018-01-10T07:50:18.760Z,108
2018-01-10T07:51:18.476Z,108
2018-01-10T07:52:18.820Z,112
2018-01-10T07:53:18.628Z,112
2018-01-10T07:54:18.819Z,116
2018-01-10T07:55:18.838Z,116
2018-01-10T07:56:18.573Z,120
2018-01-10T07:57:18.575Z,120
2018-01-10T07:58:18.832Z,124
2018-01-10T07:59:18.341Z,124
2018-01-10T08:00:18.900Z,128
2018-01-10T08:01:18.589Z,128
2018-01-10T08:02:18.422Z,132
2018-01-10T08:03:18.752Z,132
2018-01-10T08:04:18.315Z,136
2018-01-10T08:05:18.676Z,136
2018-01-10T08:06:18.913Z,140
2018-01-10T08:07:18.448Z,140
2018-01-10T08:08:18.946Z,144
2018-01-10T08:09:18.775Z,148
2018-01-10T08:10:18.721Z,152
2018-01-10T08:11:18.668Z,152
2018-01-10T08:12:18.458Z,156
2018-01-10T08:13:19.076Z,160
2018-01-10T08:14:18.151Z,156
2018-01-10T08:15:18.978Z,160
2018-01-10T08:16:18.749Z,160
2018-01-10T08:17:18.798Z,164
2018-01-10T08:18:19.059Z,164
2018-01-10T08:19:19.062Z,176
2018-01-10T08:20:19.100Z,176
2018-01-10T08:21:18.513Z,176
2018-01-10T08:22:18.553Z,180
2018-01-10T08:23:18.821Z,180
2018-01-10T08:24:18.837Z,184
2018-01-10T08:25:19.139Z,184
2018-01-10T08:26:18.625Z,184
2018-01-10T08:27:19.179Z,184
2018-01-10T08:28:18.573Z,188
2018-01-10T08:29:18.896Z,192
2018-01-10T08:30:19.149Z,192
2018-01-10T08:31:18.967Z,196
2018-01-10T08:32:18.989Z,196
2018-01-10T08:33:18.948Z,200
2018-01-10T08:34:18.659Z,200
2018-01-10T08:35:19.285Z,200
2018-01-10T08:36:18.747Z,204
2018-01-10T08:37:19.218Z,204
2018-01-10T08:38:18.958Z,204
2018-01-10T08:39:18.999Z,208
2018-01-10T08:40:19.042Z,208
2018-01-10T08:41:19.016Z,208
2018-01-10T08:42:19.150Z,212
2018-01-10T08:43:19.381Z,212
2018-01-10T08:44:18.749Z,212
2018-01-10T08:45:19.090Z,216
2018-01-10T08:46:19.374Z,220
2018-01-10T08:47:19.166Z,224
2018-01-10T08:48:19.120Z,224
2018-01-10T08:49:18.866Z,220
2018-01-10T08:50:19.129Z,228
2018-01-10T08:51:18.841Z,228
2018-01-10T08:52:18.886Z,232
2018-01-10T08:53:19.456Z,236
2018-01-10T08:54:19.518Z,240
2018-01-10T08:55:19.210Z,244
2018-01-10T08:56:19.453Z,240
2018-01-10T08:57:19.472Z,244
2018-01-10T08:58:19.513Z,240
2018-01-10T08:59:19.513Z,240
2018-01-10T09:00:19.220Z,236
2018-01-10T09:01:19.260Z,236
2018-01-10T09:02:19.517Z,236
2018-01-10T09:03:18.990Z,236
2018-01-10T09:04:19.299Z,236
2018-01-10T09:05:19.029Z,240
2018-01-10T09:06:19.300Z,240
2018-01-10T09:07:19.263Z,244
2018-01-10T09:08:19.356Z,248
2018-01-10T09:09:19.319Z,252
2018-01-10T09:10:19.638Z,252
2018-01-10T09:11:19.381Z,252
2018-01-10T09:12:19.641Z,248
2018-01-10T09:13:19.083Z,248
2018-01-10T09:14:19.401Z,248
2018-01-10T09:15:19.180Z,244
2018-01-10T09:16:19.393Z,248
2018-01-10T09:17:19.689Z,244
2018-01-10T09:18:19.763Z,248
2018-01-10T09:19:19.725Z,248
2018-01-10T09:20:19.756Z,248
2018-01-10T09:21:19.448Z,248
2018-01-10T09:22:19.740Z,248
2018-01-10T09:23:19.750Z,252
2018-01-10T09:24:19.769Z,256
2018-01-10T09:25:19.219Z,252
2018-01-10T09:26:19.255Z,252
2018-01-10T09:27:19.542Z,256
2018-01-10T09:28:19.805Z,252
2018-01-10T09:29:19.514Z,256
2018-01-10T09:30:19.860Z,256
2018-01-10T09:31:19.561Z,256
2018-01-10T09:32:19.606Z,256
2018-01-10T09:33:19.611Z,256
2018-01-10T09:34:19.593Z,256
2018-01-10T09:35:19.919Z,260
2018-01-10T09:36:19.418Z,260
2018-01-10T09:37:19.912Z,260
2018-01-10T09:38:19.659Z,264
2018-01-10T09:39:19.943Z,260
2018-01-10T09:40:19.408Z,260
2018-01-10T09:41:19.111Z,264
2018-01-10T09:42:19.691Z,264
2018-01-10T09:43:19.746Z,268
2018-01-10T09:44:19.764Z,272
2018-01-10T09:45:19.752Z,276
2018-01-10T09:46:19.734Z,292
2018-01-10T09:47:19.785Z,280
2018-01-10T09:48:19.773Z,280
2018-01-10T09:49:19.508Z,284
2018-01-10T09:50:20.048Z,284
2018-01-10T09:51:20.095Z,284
2018-01-10T09:52:19.864Z,280
2018-01-10T09:53:19.532Z,276
2018-01-10T09:54:19.572Z,276
2018-01-10T09:55:19.834Z,272
2018-01-10T09:56:19.812Z,272
2018-01-10T09:57:19.903Z,272
2018-01-10T09:58:20.149Z,268
2018-01-10T09:59:20.156Z,272
2018-01-10T10:00:20.211Z,272
2018-01-10T10:01:19.932Z,272
2018-01-10T10:02:19.919Z,272
2018-01-10T10:03:19.385Z,272
2018-01-10T10:04:20.203Z,272
2018-01-10T10:05:19.966Z,272
2018-01-10T10:06:19.674Z,272
2018-01-10T10:07:20.248Z,272
2018-01-10T10:08:20.345Z,272
2018-01-10T10:09:20.303Z,276
2018-01-10T10:10:20.316Z,272
2018-01-10T10:11:20.038Z,272
2018-01-10T10:12:20.031Z,276
2018-01-10T10:13:20.330Z,276
2018-01-10T10:14:20.339Z,276
2018-01-10T10:15:19.817Z,276
2018-01-10T10:16:20.069Z,276
2018-01-10T10:17:19.800Z,280
2018-01-10T10:18:20.344Z,280
2018-01-10T10:19:20.153Z,284
2018-01-10T10:20:20.415Z,284
2018-01-10T10:21:20.223Z,288
2018-01-10T10:22:20.423Z,288
2018-01-10T10:23:20.198Z,288
2018-01-10T10:24:20.200Z,292
2018-01-10T10:25:20.452Z,292
2018-01-10T10:26:20.494Z,292
2018-01-10T10:27:19.944Z,292
2018-01-10T10:28:20.166Z,292
2018-01-10T10:29:20.220Z,296
2018-01-10T10:30:20.281Z,300
2018-01-10T10:31:19.977Z,300
2018-01-10T10:32:20.262Z,300
2018-01-10T10:33:20.359Z,304
2018-01-10T10:34:20.278Z,304
2018-01-10T10:35:20.291Z,304
2018-01-10T10:36:20.629Z,308
2018-01-10T10:37:20.727Z,308
2018-01-10T10:38:20.607Z,308
2018-01-10T10:39:20.345Z,312
2018-01-10T10:40:20.338Z,312
2018-01-10T10:41:20.659Z,312
2018-01-10T10:42:20.440Z,320
2018-01-10T10:43:20.723Z,320
2018-01-10T10:44:20.694Z,320
2018-01-10T10:45:20.439Z,324
2018-01-10T10:46:20.703Z,328
2018-01-10T10:47:20.772Z,328
2018-01-10T10:48:20.485Z,332
2018-01-10T10:49:20.474Z,332
2018-01-10T10:50:20.823Z,332
2018-01-10T10:51:20.521Z,332
2018-01-10T10:52:20.244Z,336
2018-01-10T10:53:20.538Z,332
2018-01-10T10:54:20.823Z,340
2018-01-10T10:55:20.568Z,340
2018-01-10T10:56:20.541Z,340
2018-01-10T10:57:20.600Z,344
2018-01-10T10:58:20.923Z,344
2018-01-10T10:59:20.910Z,344
2018-01-10T11:00:20.912Z,348
2018-01-10T11:01:20.605Z,348
2018-01-10T11:02:20.876Z,348
2018-01-10T11:03:20.652Z,352
2018-01-10T11:04:20.929Z,352
2018-01-10T11:05:20.932Z,352
2018-01-10T11:06:20.987Z,356
2018-01-10T11:07:20.424Z,356
2018-01-10T11:08:20.444Z,360
2018-01-10T11:09:20.755Z,360
2018-01-10T11:10:20.745Z,364
2018-01-10T11:11:20.501Z,364
2018-01-10T11:12:21.056Z,364
2018-01-10T11:13:20.734Z,368
2018-01-10T11:14:20.518Z,376
2018-01-10T11:15:20.811Z,376
2018-01-10T11:16:20.830Z,384
2018-01-10T11:17:20.831Z,388
2018-01-10T11:18:20.864Z,392
2018-01-10T11:19:21.109Z,392
2018-01-10T11:20:20.563Z,392
2018-01-10T11:21:21.181Z,392
2018-01-10T11:22:21.248Z,392
2018-01-10T11:23:21.189Z,392
2018-01-10T11:24:20.890Z,392
2018-01-10T11:25:20.947Z,396
2018-01-10T11:26:21.199Z,400
2018-01-10T11:27:20.987Z,404
2018-01-10T11:28:20.703Z,408
2018-01-10T11:29:20.989Z,412
2018-01-10T11:30:21.002Z,408
2018-01-10T11:31:20.942Z,408
2018-01-10T11:32:20.746Z,408
2018-01-10T11:33:21.277Z,408
2018-01-10T11:34:21.008Z,408
2018-01-10T11:35:21.339Z,408
2018-01-10T11:36:21.280Z,408
2018-01-10T11:37:21.308Z,408
2018-01-10T11:38:21.121Z,408
2018-01-10T11:39:21.100Z,408
2018-01-10T11:40:21.453Z,404
2018-01-10T11:41:21.134Z,404
2018-01-10T11:42:21.423Z,408
2018-01-10T11:43:21.154Z,408
2018-01-10T11:44:21.400Z,408
2018-01-10T11:45:21.472Z,408
2018-01-10T11:46:21.486Z,408
2018-01-10T11:47:21.503Z,412
2018-01-10T11:48:21.265Z,416
2018-01-10T11:49:21.218Z,416
2018-01-10T11:50:21.535Z,412
2018-01-10T11:51:21.492Z,416
2018-01-10T11:52:20.973Z,420
2018-01-10T11:53:21.508Z,420
2018-01-10T11:54:21.595Z,420
2018-01-10T11:55:21.621Z,420
2018-01-10T11:56:21.575Z,420
2018-01-10T11:57:21.366Z,416
2018-01-10T11:58:21.325Z,420
2018-01-10T11:59:21.124Z,412
2018-01-10T12:00:21.602Z,400
2018-01-10T12:01:21.653Z,396
2018-01-10T12:02:21.649Z,404
2018-01-10T12:03:21.701Z,436
2018-01-10T12:04:21.684Z,464
2018-01-10T12:05:21.730Z,492
2018-01-10T12:06:21.240Z,500
2018-01-10T12:07:21.168Z,500
2018-01-10T12:08:21.169Z,488
2018-01-10T12:09:21.189Z,472
2018-01-10T12:10:21.777Z,456
2018-01-10T12:11:21.799Z,448
2018-01-10T12:12:21.473Z,440
2018-01-10T12:13:21.819Z,440
2018-01-10T12:14:21.581Z,444
2018-01-10T12:15:21.560Z,452
2018-01-10T12:16:21.530Z,464
2018-01-10T12:17:21.575Z,480
2018-01-10T12:18:21.897Z,496
2018-01-10T12:19:21.630Z,520
2018-01-10T12:20:21.598Z,552
2018-01-10T12:21:21.658Z,584
2018-01-10T12:22:21.917Z,624
2018-01-10T12:23:22.005Z,668
2018-01-10T12:24:21.439Z,696
2018-01-10T12:25:21.936Z,732
2018-01-10T12:26:21.163Z,772
2018-01-10T12:27:22.060Z,804
2018-01-10T12:28:21.764Z,832
2018-01-10T12:29:21.737Z,840
2018-01-10T12:30:21.508Z,828
2018-01-10T12:31:21.786Z,824
2018-01-10T12:32:21.506Z,816
2018-01-10T12:33:21.853Z,828
2018-01-10T12:34:21.586Z,852
2018-01-10T12:35:21.782Z,852
2018-01-10T12:36:21.873Z,828
2018-01-10T12:37:21.853Z,800
2018-01-10T12:38:21.868Z,780
2018-01-10T12:39:22.148Z,772
2018-01-10T12:40:21.907Z,772
2018-01-10T12:41:22.180Z,784
2018-01-10T12:42:21.642Z,784
2018-01-10T12:43:21.940Z,764
2018-01-10T12:44:21.660Z,740
2018-01-10T12:45:21.380Z,724
2018-01-10T12:46:22.008Z,700
2018-01-10T12:47:21.957Z,684
2018-01-10T12:48:21.463Z,672
2018-01-10T12:49:22.253Z,640
2018-01-10T12:50:21.762Z,608
2018-01-10T12:51:22.078Z,560
2018-01-10T12:52:21.759Z,528
2018-01-10T12:53:22.420Z,500
2018-01-10T12:54:21.784Z,476
2018-01-10T12:55:22.111Z,452
2018-01-10T12:56:21.858Z,424
2018-01-10T12:57:22.402Z,396
2018-01-10T12:58:22.248Z,372
2018-01-10T12:59:22.151Z,356
2018-01-10T13:00:21.931Z,352
2018-01-10T13:01:22.480Z,348
2018-01-10T13:02:22.478Z,344
2018-01-10T13:03:21.945Z,344
2018-01-10T13:04:22.615Z,344
2018-01-10T13:05:22.580Z,344
2018-01-10T13:06:21.715Z,344
2018-01-10T13:07:22.530Z,348
2018-01-10T13:08:22.624Z,352
2018-01-10T13:09:22.612Z,352
2018-01-10T13:10:22.081Z,356
2018-01-10T13:11:22.371Z,356
2018-01-10T13:12:22.317Z,356
2018-01-10T13:13:22.093Z,356
2018-01-10T13:14:22.380Z,352
2018-01-10T13:15:22.685Z,352
2018-01-10T13:16:22.403Z,348
2018-01-10T13:17:22.138Z,340
2018-01-10T13:18:22.440Z,336
2018-01-10T13:19:22.447Z,336
2018-01-10T13:20:21.919Z,336
2018-01-10T13:21:21.924Z,340
2018-01-10T13:22:22.473Z,336
2018-01-10T13:23:22.507Z,340
2018-01-10T13:24:22.498Z,340
2018-01-10T13:25:22.215Z,340
2018-01-10T13:26:21.996Z,340
2018-01-10T13:27:22.612Z,340
2018-01-10T13:28:22.665Z,340
2018-01-10T13:29:22.389Z,336
2018-01-10T13:30:22.977Z,332
2018-01-10T13:31:22.362Z,328
2018-01-10T13:32:22.377Z,324
2018-01-10T13:33:22.922Z,324
2018-01-10T13:34:22.671Z,320
2018-01-10T13:35:22.706Z,320
2018-01-10T13:36:22.711Z,316
2018-01-10T13:37:22.733Z,320
2018-01-10T13:38:23.021Z,320
2018-01-10T13:39:22.723Z,316
2018-01-10T13:40:22.770Z,316
2018-01-10T13:41:22.783Z,312
2018-01-10T13:42:23.069Z,304
2018-01-10T13:43:22.239Z,304
2018-01-10T13:44:22.534Z,308
2018-01-10T13:45:22.833Z,308
2018-01-10T13:46:22.596Z,316
2018-01-10T13:47:22.870Z,316
2018-01-10T13:48:22.983Z,320
2018-01-10T13:49:22.890Z,328
2018-01-10T13:50:23.218Z,332
2018-01-10T13:51:22.920Z,336
2018-01-10T13:52:22.901Z,336
2018-01-10T13:53:22.915Z,336
2018-01-10T13:54:22.674Z,328
2018-01-10T13:55:22.996Z,324
2018-01-10T13:56:23.231Z,320
2018-01-10T13:57:23.258Z,312
2018-01-10T13:58:23.246Z,308
2018-01-10T13:59:23.021Z,304
2018-01-10T14:00:22.810Z,296
2018-01-10T14:01:22.999Z,288
2018-01-10T14:02:23.067Z,284
2018-01-10T14:03:23.291Z,276
2018-01-10T14:04:23.053Z,276
2018-01-10T14:05:22.901Z,276
2018-01-10T14:06:23.278Z,272
2018-01-10T14:07:23.428Z,268
2018-01-10T14:08:22.912Z,268
2018-01-10T14:09:23.527Z,264
2018-01-10T14:10:23.672Z,260
2018-01-10T14:11:23.456Z,260
2018-01-10T14:12:23.517Z,256
2018-01-10T14:13:23.184Z,256
2018-01-10T14:14:23.232Z,256
2018-01-10T14:15:23.242Z,252
2018-01-10T14:16:23.121Z,252